Haven, Wisconsin
Current Conditions -  °F | °C
As of 11:53 PM on Wednesday 26 Nov 2014 (Local Time) from KSBM Reporting Station
Haze Haze  
Wind Chill: 11°   Ceiling: 7500
Heat Index: 21°   Visibility: 5mi
Dew Point: 17°   Wind: 8mph
Humidity: 85%   Direction: 290°WNW
Pressure: 30.19"   Gusts: NA
Location:  43.8288°N, 87.7756°W
Report Text: KSBM 270553Z AUTO 29007KT 5SM BR SCT050 OVC075 M06/M08 A3019 RMK AO2 SLP236 I6000 T10611083 11061 21089 410331089 53005
Loading
Personal Weather Stations






























Interactive Weather Map New forecast layout! Learn more

10-Day Weather Forecast

Advertisements
Track Severe Weather on mobile